sensor_id;sensor_type;location;lat;lon;timestamp;P1;durP1;ratioP1;P2;durP2;ratioP2
7531;SDS011;3807;49.030;8.714;2023-03-16T00:01:15;11.03;;;7.67;;
7531;SDS011;3807;49.030;8.714;2023-03-16T00:03:41;12.97;;;7.83;;
7531;SDS011;3807;49.030;8.714;2023-03-16T00:06:06;11.70;;;8.20;;
7531;SDS011;3807;49.030;8.714;2023-03-16T00:08:31;10.70;;;7.43;;
7531;SDS011;3807;49.030;8.714;2023-03-16T00:10:57;12.17;;;8.93;;
7531;SDS011;3807;49.030;8.714;2023-03-16T00:13:23;10.77;;;7.90;;
7531;SDS011;3807;49.030;8.714;2023-03-16T00:15:52;13.27;;;9.20;;
7531;SDS011;3807;49.030;8.714;2023-03-16T00:18:19;14.27;;;10.07;;
7531;SDS011;3807;49.030;8.714;2023-03-16T00:20:50;11.87;;;8.00;;
7531;SDS011;3807;49.030;8.714;2023-03-16T00:23:16;14.10;;;8.83;;
7531;SDS011;3807;49.030;8.714;2023-03-16T00:25:41;13.60;;;8.67;;
7531;SDS011;3807;49.030;8.714;2023-03-16T00:28:07;13.47;;;8.47;;
7531;SDS011;3807;49.030;8.714;2023-03-16T00:30:32;12.57;;;8.23;;
7531;SDS011;3807;49.030;8.714;2023-03-16T00:32:58;12.77;;;8.50;;
7531;SDS011;3807;49.030;8.714;2023-03-16T00:35:23;11.57;;;7.57;;
7531;SDS011;3807;49.030;8.714;2023-03-16T00:37:49;12.47;;;8.93;;
7531;SDS011;3807;49.030;8.714;2023-03-16T00:40:14;11.57;;;8.60;;
7531;SDS011;3807;49.030;8.714;2023-03-16T00:42:40;13.40;;;8.87;;
7531;SDS011;3807;49.030;8.714;2023-03-16T00:45:06;11.63;;;7.80;;
7531;SDS011;3807;49.030;8.714;2023-03-16T00:47:32;12.63;;;8.60;;
7531;SDS011;3807;49.030;8.714;2023-03-16T00:49:59;16.07;;;8.70;;
7531;SDS011;3807;49.030;8.714;2023-03-16T00:52:25;14.27;;;8.40;;
7531;SDS011;3807;49.030;8.714;2023-03-16T00:54:51;12.47;;;8.37;;
7531;SDS011;3807;49.030;8.714;2023-03-16T00:57:18;13.57;;;8.87;;
7531;SDS011;3807;49.030;8.714;2023-03-16T00:59:45;19.37;;;8.70;;
7531;SDS011;3807;49.030;8.714;2023-03-16T01:02:11;14.10;;;8.87;;
7531;SDS011;3807;49.030;8.714;2023-03-16T01:04:38;11.17;;;7.60;;
7531;SDS011;3807;49.030;8.714;2023-03-16T01:07:06;12.20;;;8.30;;
7531;SDS011;3807;49.030;8.714;2023-03-16T01:09:32;11.67;;;8.67;;
7531;SDS011;3807;49.030;8.714;2023-03-16T01:12:04;12.17;;;8.23;;
7531;SDS011;3807;49.030;8.714;2023-03-16T01:14:32;13.53;;;8.07;;
7531;SDS011;3807;49.030;8.714;2023-03-16T01:16:59;14.80;;;7.83;;
7531;SDS011;3807;49.030;8.714;2023-03-16T01:19:25;10.77;;;8.37;;
7531;SDS011;3807;49.030;8.714;2023-03-16T01:21:51;11.20;;;7.90;;
7531;SDS011;3807;49.030;8.714;2023-03-16T01:24:17;11.67;;;7.67;;
7531;SDS011;3807;49.030;8.714;2023-03-16T01:26:42;12.47;;;7.93;;
7531;SDS011;3807;49.030;8.714;2023-03-16T01:29:08;15.70;;;8.07;;
7531;SDS011;3807;49.030;8.714;2023-03-16T01:31:34;13.30;;;8.20;;
7531;SDS011;3807;49.030;8.714;2023-03-16T01:33:59;12.10;;;8.53;;
7531;SDS011;3807;49.030;8.714;2023-03-16T01:36:28;12.37;;;8.63;;
7531;SDS011;3807;49.030;8.714;2023-03-16T01:38:53;13.33;;;7.73;;
7531;SDS011;3807;49.030;8.714;2023-03-16T01:41:19;12.00;;;7.43;;
7531;SDS011;3807;49.030;8.714;2023-03-16T01:43:44;13.23;;;8.87;;
7531;SDS011;3807;49.030;8.714;2023-03-16T01:46:14;12.03;;;7.83;;
7531;SDS011;3807;49.030;8.714;2023-03-16T01:48:49;10.50;;;7.93;;
7531;SDS011;3807;49.030;8.714;2023-03-16T01:51:23;9.87;;;7.07;;
7531;SDS011;3807;49.030;8.714;2023-03-16T01:53:53;13.47;;;7.67;;
7531;SDS011;3807;49.030;8.714;2023-03-16T01:56:23;12.27;;;8.60;;
7531;SDS011;3807;49.030;8.714;2023-03-16T01:58:54;11.07;;;6.77;;
7531;SDS011;3807;49.030;8.714;2023-03-16T02:01:23;9.57;;;7.10;;
7531;SDS011;3807;49.030;8.714;2023-03-16T02:03:51;11.07;;;7.47;;
7531;SDS011;3807;49.030;8.714;2023-03-16T02:06:21;9.40;;;7.20;;
7531;SDS011;3807;49.030;8.714;2023-03-16T02:08:47;10.53;;;7.73;;
7531;SDS011;3807;49.030;8.714;2023-03-16T02:11:13;10.20;;;7.77;;
7531;SDS011;3807;49.030;8.714;2023-03-16T02:13:42;11.10;;;6.83;;
7531;SDS011;3807;49.030;8.714;2023-03-16T02:16:09;10.90;;;8.10;;
7531;SDS011;3807;49.030;8.714;2023-03-16T02:18:37;10.80;;;7.10;;
7531;SDS011;3807;49.030;8.714;2023-03-16T02:21:05;12.00;;;8.03;;
7531;SDS011;3807;49.030;8.714;2023-03-16T02:23:50;13.53;;;7.37;;
7531;SDS011;3807;49.030;8.714;2023-03-16T02:26:19;12.33;;;7.33;;
7531;SDS011;3807;49.030;8.714;2023-03-16T02:31:23;11.80;;;7.83;;
7531;SDS011;3807;49.030;8.714;2023-03-16T02:33:49;13.23;;;8.43;;
7531;SDS011;3807;49.030;8.714;2023-03-16T02:36:17;14.60;;;8.33;;
7531;SDS011;3807;49.030;8.714;2023-03-16T02:38:43;15.23;;;8.33;;
7531;SDS011;3807;49.030;8.714;2023-03-16T02:41:13;12.53;;;8.27;;
7531;SDS011;3807;49.030;8.714;2023-03-16T02:43:44;13.23;;;9.57;;
7531;SDS011;3807;49.030;8.714;2023-03-16T02:46:34;14.13;;;8.13;;
7531;SDS011;3807;49.030;8.714;2023-03-16T02:49:05;13.17;;;8.50;;
7531;SDS011;3807;49.030;8.714;2023-03-16T02:51:36;14.80;;;9.50;;
7531;SDS011;3807;49.030;8.714;2023-03-16T02:54:01;11.23;;;8.67;;
7531;SDS011;3807;49.030;8.714;2023-03-16T02:56:27;11.97;;;8.13;;
7531;SDS011;3807;49.030;8.714;2023-03-16T02:58:52;11.07;;;8.80;;
7531;SDS011;3807;49.030;8.714;2023-03-16T03:01:18;15.20;;;8.87;;
7531;SDS011;3807;49.030;8.714;2023-03-16T03:03:44;13.57;;;9.07;;
7531;SDS011;3807;49.030;8.714;2023-03-16T03:06:09;14.47;;;8.77;;
7531;SDS011;3807;49.030;8.714;2023-03-16T03:08:35;14.93;;;9.40;;
7531;SDS011;3807;49.030;8.714;2023-03-16T03:11:00;12.57;;;9.20;;
7531;SDS011;3807;49.030;8.714;2023-03-16T03:13:26;13.80;;;7.73;;
7531;SDS011;3807;49.030;8.714;2023-03-16T03:15:51;11.60;;;8.33;;
7531;SDS011;3807;49.030;8.714;2023-03-16T03:18:17;14.13;;;9.70;;
7531;SDS011;3807;49.030;8.714;2023-03-16T03:20:42;15.37;;;10.47;;
7531;SDS011;3807;49.030;8.714;2023-03-16T03:23:07;16.70;;;9.90;;
7531;SDS011;3807;49.030;8.714;2023-03-16T03:25:33;14.03;;;9.60;;
7531;SDS011;3807;49.030;8.714;2023-03-16T03:27:58;13.30;;;8.90;;
7531;SDS011;3807;49.030;8.714;2023-03-16T03:30:25;13.43;;;8.80;;
7531;SDS011;3807;49.030;8.714;2023-03-16T03:32:51;12.67;;;8.57;;
7531;SDS011;3807;49.030;8.714;2023-03-16T03:35:17;14.10;;;9.57;;
7531;SDS011;3807;49.030;8.714;2023-03-16T03:37:42;14.87;;;9.93;;
7531;SDS011;3807;49.030;8.714;2023-03-16T03:40:11;13.93;;;9.50;;
7531;SDS011;3807;49.030;8.714;2023-03-16T03:42:39;14.27;;;7.73;;
7531;SDS011;3807;49.030;8.714;2023-03-16T03:45:05;14.40;;;9.00;;
7531;SDS011;3807;49.030;8.714;2023-03-16T03:47:31;15.37;;;9.40;;
7531;SDS011;3807;49.030;8.714;2023-03-16T03:49:57;13.50;;;8.67;;
7531;SDS011;3807;49.030;8.714;2023-03-16T03:52:22;16.40;;;9.57;;
7531;SDS011;3807;49.030;8.714;2023-03-16T03:54:48;15.97;;;9.10;;
7531;SDS011;3807;49.030;8.714;2023-03-16T03:57:13;11.90;;;8.53;;
7531;SDS011;3807;49.030;8.714;2023-03-16T03:59:38;15.40;;;9.30;;
7531;SDS011;3807;49.030;8.714;2023-03-16T04:02:10;11.10;;;7.87;;
7531;SDS011;3807;49.030;8.714;2023-03-16T04:04:36;12.67;;;7.97;;
7531;SDS011;3807;49.030;8.714;2023-03-16T04:07:01;12.97;;;8.23;;
7531;SDS011;3807;49.030;8.714;2023-03-16T04:09:27;13.50;;;9.60;;
7531;SDS011;3807;49.030;8.714;2023-03-16T04:11:53;14.20;;;8.50;;
7531;SDS011;3807;49.030;8.714;2023-03-16T04:14:21;10.30;;;7.67;;
7531;SDS011;3807;49.030;8.714;2023-03-16T04:16:47;11.53;;;8.27;;
7531;SDS011;3807;49.030;8.714;2023-03-16T04:19:12;12.20;;;8.83;;
7531;SDS011;3807;49.030;8.714;2023-03-16T04:21:38;10.43;;;7.37;;
7531;SDS011;3807;49.030;8.714;2023-03-16T04:24:03;13.17;;;8.67;;
7531;SDS011;3807;49.030;8.714;2023-03-16T04:26:29;11.60;;;7.73;;
7531;SDS011;3807;49.030;8.714;2023-03-16T04:28:55;14.13;;;8.00;;
7531;SDS011;3807;49.030;8.714;2023-03-16T04:31:21;10.60;;;7.47;;
7531;SDS011;3807;49.030;8.714;2023-03-16T04:33:46;12.53;;;8.00;;
7531;SDS011;3807;49.030;8.714;2023-03-16T04:36:12;13.77;;;8.37;;
7531;SDS011;3807;49.030;8.714;2023-03-16T04:38:38;12.90;;;7.83;;
7531;SDS011;3807;49.030;8.714;2023-03-16T04:41:04;12.10;;;8.13;;
7531;SDS011;3807;49.030;8.714;2023-03-16T04:43:31;15.70;;;9.00;;
7531;SDS011;3807;49.030;8.714;2023-03-16T04:45:58;11.57;;;7.53;;
7531;SDS011;3807;49.030;8.714;2023-03-16T04:48:25;12.67;;;8.73;;
7531;SDS011;3807;49.030;8.714;2023-03-16T04:50:52;11.63;;;7.37;;
7531;SDS011;3807;49.030;8.714;2023-03-16T04:53:17;10.97;;;7.43;;
7531;SDS011;3807;49.030;8.714;2023-03-16T04:55:43;6.17;;;4.70;;
7531;SDS011;3807;49.030;8.714;2023-03-16T04:58:10;11.27;;;7.37;;
7531;SDS011;3807;49.030;8.714;2023-03-16T05:00:35;10.43;;;6.33;;
7531;SDS011;3807;49.030;8.714;2023-03-16T05:03:00;6.43;;;4.73;;
7531;SDS011;3807;49.030;8.714;2023-03-16T05:05:26;15.33;;;8.67;;
7531;SDS011;3807;49.030;8.714;2023-03-16T05:07:52;10.27;;;7.33;;
7531;SDS011;3807;49.030;8.714;2023-03-16T05:10:17;11.80;;;6.97;;
7531;SDS011;3807;49.030;8.714;2023-03-16T05:12:43;14.23;;;7.63;;
7531;SDS011;3807;49.030;8.714;2023-03-16T05:15:09;12.00;;;8.33;;
7531;SDS011;3807;49.030;8.714;2023-03-16T05:17:35;13.17;;;7.57;;
7531;SDS011;3807;49.030;8.714;2023-03-16T05:20:00;14.30;;;7.93;;
7531;SDS011;3807;49.030;8.714;2023-03-16T05:22:32;16.53;;;7.80;;
7531;SDS011;3807;49.030;8.714;2023-03-16T05:24:59;12.57;;;7.70;;
7531;SDS011;3807;49.030;8.714;2023-03-16T05:27:27;8.77;;;5.87;;
7531;SDS011;3807;49.030;8.714;2023-03-16T05:29:52;10.63;;;6.53;;
7531;SDS011;3807;49.030;8.714;2023-03-16T05:32:18;11.47;;;8.20;;
7531;SDS011;3807;49.030;8.714;2023-03-16T05:34:43;13.70;;;8.00;;
7531;SDS011;3807;49.030;8.714;2023-03-16T05:37:08;12.07;;;7.63;;
7531;SDS011;3807;49.030;8.714;2023-03-16T05:39:34;13.90;;;8.80;;
7531;SDS011;3807;49.030;8.714;2023-03-16T05:41:59;11.93;;;7.07;;
7531;SDS011;3807;49.030;8.714;2023-03-16T05:44:24;11.63;;;8.17;;
7531;SDS011;3807;49.030;8.714;2023-03-16T05:46:50;14.20;;;9.37;;
7531;SDS011;3807;49.030;8.714;2023-03-16T05:49:15;16.23;;;9.00;;
7531;SDS011;3807;49.030;8.714;2023-03-16T05:51:41;14.57;;;9.43;;
7531;SDS011;3807;49.030;8.714;2023-03-16T05:54:06;14.33;;;8.77;;
7531;SDS011;3807;49.030;8.714;2023-03-16T05:56:32;14.13;;;8.57;;
7531;SDS011;3807;49.030;8.714;2023-03-16T05:58:57;10.40;;;7.53;;
7531;SDS011;3807;49.030;8.714;2023-03-16T06:01:24;12.30;;;8.27;;
7531;SDS011;3807;49.030;8.714;2023-03-16T06:03:49;12.33;;;8.47;;
7531;SDS011;3807;49.030;8.714;2023-03-16T06:06:18;13.73;;;7.90;;
7531;SDS011;3807;49.030;8.714;2023-03-16T06:08:45;11.73;;;7.77;;
7531;SDS011;3807;49.030;8.714;2023-03-16T06:11:11;14.83;;;9.37;;
7531;SDS011;3807;49.030;8.714;2023-03-16T06:13:36;11.00;;;8.13;;
7531;SDS011;3807;49.030;8.714;2023-03-16T06:16:03;11.50;;;8.70;;
7531;SDS011;3807;49.030;8.714;2023-03-16T06:18:30;14.90;;;7.93;;
7531;SDS011;3807;49.030;8.714;2023-03-16T06:20:56;15.43;;;8.30;;
7531;SDS011;3807;49.030;8.714;2023-03-16T06:23:21;12.40;;;8.23;;
7531;SDS011;3807;49.030;8.714;2023-03-16T06:25:47;12.17;;;8.10;;
7531;SDS011;3807;49.030;8.714;2023-03-16T06:28:12;14.90;;;8.43;;
7531;SDS011;3807;49.030;8.714;2023-03-16T06:30:39;11.97;;;7.07;;
7531;SDS011;3807;49.030;8.714;2023-03-16T06:33:05;14.20;;;8.37;;
7531;SDS011;3807;49.030;8.714;2023-03-16T06:35:30;12.30;;;8.37;;
7531;SDS011;3807;49.030;8.714;2023-03-16T06:37:56;12.53;;;8.70;;
7531;SDS011;3807;49.030;8.714;2023-03-16T06:40:21;14.10;;;8.40;;
7531;SDS011;3807;49.030;8.714;2023-03-16T06:42:46;11.83;;;7.80;;
7531;SDS011;3807;49.030;8.714;2023-03-16T06:45:12;12.77;;;7.60;;
7531;SDS011;3807;49.030;8.714;2023-03-16T06:47:37;15.00;;;8.70;;
7531;SDS011;3807;49.030;8.714;2023-03-16T06:50:03;14.97;;;8.60;;
7531;SDS011;3807;49.030;8.714;2023-03-16T06:52:29;14.23;;;8.80;;
7531;SDS011;3807;49.030;8.714;2023-03-16T06:54:55;16.00;;;9.37;;
7531;SDS011;3807;49.030;8.714;2023-03-16T06:57:22;14.80;;;9.57;;
7531;SDS011;3807;49.030;8.714;2023-03-16T06:59:48;15.03;;;8.47;;
7531;SDS011;3807;49.030;8.714;2023-03-16T07:02:13;15.10;;;9.10;;
7531;SDS011;3807;49.030;8.714;2023-03-16T07:04:39;13.37;;;9.27;;
7531;SDS011;3807;49.030;8.714;2023-03-16T07:07:05;15.73;;;9.63;;
7531;SDS011;3807;49.030;8.714;2023-03-16T07:09:31;19.10;;;9.00;;
7531;SDS011;3807;49.030;8.714;2023-03-16T07:11:56;13.10;;;8.77;;
7531;SDS011;3807;49.030;8.714;2023-03-16T07:14:21;16.87;;;9.43;;
7531;SDS011;3807;49.030;8.714;2023-03-16T07:16:48;16.60;;;9.57;;
7531;SDS011;3807;49.030;8.714;2023-03-16T07:19:14;9.10;;;6.33;;
7531;SDS011;3807;49.030;8.714;2023-03-16T07:21:39;18.63;;;10.43;;
7531;SDS011;3807;49.030;8.714;2023-03-16T07:24:06;13.33;;;8.83;;
7531;SDS011;3807;49.030;8.714;2023-03-16T07:26:32;19.70;;;9.67;;
7531;SDS011;3807;49.030;8.714;2023-03-16T07:28:58;14.70;;;9.77;;
7531;SDS011;3807;49.030;8.714;2023-03-16T07:31:24;14.30;;;8.70;;
7531;SDS011;3807;49.030;8.714;2023-03-16T07:33:49;14.40;;;9.17;;
7531;SDS011;3807;49.030;8.714;2023-03-16T07:36:15;13.93;;;8.97;;
7531;SDS011;3807;49.030;8.714;2023-03-16T07:38:40;11.03;;;7.60;;
7531;SDS011;3807;49.030;8.714;2023-03-16T07:41:06;14.33;;;9.40;;
7531;SDS011;3807;49.030;8.714;2023-03-16T07:43:31;15.90;;;10.30;;
7531;SDS011;3807;49.030;8.714;2023-03-16T07:45:57;10.07;;;6.90;;
7531;SDS011;3807;49.030;8.714;2023-03-16T07:48:23;15.33;;;8.33;;
7531;SDS011;3807;49.030;8.714;2023-03-16T07:50:48;13.23;;;8.00;;
7531;SDS011;3807;49.030;8.714;2023-03-16T07:53:14;11.40;;;8.33;;
7531;SDS011;3807;49.030;8.714;2023-03-16T07:55:41;15.03;;;10.00;;
7531;SDS011;3807;49.030;8.714;2023-03-16T07:58:07;8.33;;;5.83;;
7531;SDS011;3807;49.030;8.714;2023-03-16T08:00:34;16.33;;;10.53;;
7531;SDS011;3807;49.030;8.714;2023-03-16T08:03:00;13.50;;;8.80;;
7531;SDS011;3807;49.030;8.714;2023-03-16T08:05:26;15.20;;;9.63;;
7531;SDS011;3807;49.030;8.714;2023-03-16T08:07:51;11.90;;;7.93;;
7531;SDS011;3807;49.030;8.714;2023-03-16T08:10:17;15.90;;;9.80;;
7531;SDS011;3807;49.030;8.714;2023-03-16T08:12:43;17.50;;;10.97;;
7531;SDS011;3807;49.030;8.714;2023-03-16T08:15:08;13.47;;;9.30;;
7531;SDS011;3807;49.030;8.714;2023-03-16T08:17:34;15.83;;;9.57;;
7531;SDS011;3807;49.030;8.714;2023-03-16T08:20:01;14.63;;;9.23;;
7531;SDS011;3807;49.030;8.714;2023-03-16T08:22:32;15.57;;;10.37;;
7531;SDS011;3807;49.030;8.714;2023-03-16T08:24:57;13.90;;;7.17;;
7531;SDS011;3807;49.030;8.714;2023-03-16T08:27:22;10.97;;;7.67;;
7531;SDS011;3807;49.030;8.714;2023-03-16T08:29:53;12.97;;;9.00;;
7531;SDS011;3807;49.030;8.714;2023-03-16T08:32:18;14.33;;;10.23;;
7531;SDS011;3807;49.030;8.714;2023-03-16T08:34:44;10.23;;;6.30;;
7531;SDS011;3807;49.030;8.714;2023-03-16T08:37:10;14.07;;;8.23;;
7531;SDS011;3807;49.030;8.714;2023-03-16T08:39:35;8.13;;;5.43;;
7531;SDS011;3807;49.030;8.714;2023-03-16T08:42:00;5.70;;;4.50;;
7531;SDS011;3807;49.030;8.714;2023-03-16T08:44:26;10.57;;;6.73;;
7531;SDS011;3807;49.030;8.714;2023-03-16T08:46:52;11.57;;;7.57;;
7531;SDS011;3807;49.030;8.714;2023-03-16T08:49:17;12.77;;;7.70;;
7531;SDS011;3807;49.030;8.714;2023-03-16T08:51:44;11.03;;;6.90;;
7531;SDS011;3807;49.030;8.714;2023-03-16T08:54:10;9.57;;;6.87;;
7531;SDS011;3807;49.030;8.714;2023-03-16T08:56:36;9.27;;;5.60;;
7531;SDS011;3807;49.030;8.714;2023-03-16T08:59:01;13.90;;;8.23;;
7531;SDS011;3807;49.030;8.714;2023-03-16T09:01:27;10.43;;;7.03;;
7531;SDS011;3807;49.030;8.714;2023-03-16T09:03:53;14.13;;;9.50;;
7531;SDS011;3807;49.030;8.714;2023-03-16T09:06:19;8.60;;;6.17;;
7531;SDS011;3807;49.030;8.714;2023-03-16T09:08:46;10.77;;;7.63;;
7531;SDS011;3807;49.030;8.714;2023-03-16T09:11:12;16.77;;;8.03;;
7531;SDS011;3807;49.030;8.714;2023-03-16T09:13:40;11.90;;;7.33;;
7531;SDS011;3807;49.030;8.714;2023-03-16T09:16:07;8.40;;;5.60;;
7531;SDS011;3807;49.030;8.714;2023-03-16T09:18:33;11.20;;;7.80;;
7531;SDS011;3807;49.030;8.714;2023-03-16T09:21:01;14.33;;;7.93;;
7531;SDS011;3807;49.030;8.714;2023-03-16T09:23:28;11.80;;;8.43;;
7531;SDS011;3807;49.030;8.714;2023-03-16T09:25:58;10.63;;;7.57;;
7531;SDS011;3807;49.030;8.714;2023-03-16T09:28:25;12.33;;;7.93;;
7531;SDS011;3807;49.030;8.714;2023-03-16T09:30:52;11.67;;;7.20;;
7531;SDS011;3807;49.030;8.714;2023-03-16T09:33:19;15.90;;;8.90;;
7531;SDS011;3807;49.030;8.714;2023-03-16T09:35:45;11.40;;;6.20;;
7531;SDS011;3807;49.030;8.714;2023-03-16T09:38:11;9.50;;;5.43;;
7531;SDS011;3807;49.030;8.714;2023-03-16T09:40:37;9.17;;;6.37;;
7531;SDS011;3807;49.030;8.714;2023-03-16T09:43:12;8.70;;;5.90;;
7531;SDS011;3807;49.030;8.714;2023-03-16T09:45:58;8.60;;;6.77;;
7531;SDS011;3807;49.030;8.714;2023-03-16T09:48:34;17.27;;;9.17;;
7531;SDS011;3807;49.030;8.714;2023-03-16T09:51:02;10.47;;;6.67;;
7531;SDS011;3807;49.030;8.714;2023-03-16T09:53:30;9.67;;;6.87;;
7531;SDS011;3807;49.030;8.714;2023-03-16T09:56:09;9.07;;;5.23;;
7531;SDS011;3807;49.030;8.714;2023-03-16T09:58:54;11.07;;;6.87;;
7531;SDS011;3807;49.030;8.714;2023-03-16T10:10:33;17.83;;;7.17;;
7531;SDS011;3807;49.030;8.714;2023-03-16T10:13:02;9.37;;;6.33;;
7531;SDS011;3807;49.030;8.714;2023-03-16T10:15:37;7.40;;;5.00;;
7531;SDS011;3807;49.030;8.714;2023-03-16T10:20:40;2.87;;;2.30;;
7531;SDS011;3807;49.030;8.714;2023-03-16T10:23:19;8.83;;;5.70;;
7531;SDS011;3807;49.030;8.714;2023-03-16T10:25:54;16.43;;;5.83;;
7531;SDS011;3807;49.030;8.714;2023-03-16T10:30:48;9.90;;;5.60;;
7531;SDS011;3807;49.030;8.714;2023-03-16T10:35:55;5.67;;;3.80;;
7531;SDS011;3807;49.030;8.714;2023-03-16T10:41:02;6.30;;;4.93;;
7531;SDS011;3807;49.030;8.714;2023-03-16T10:43:30;10.57;;;6.00;;
7531;SDS011;3807;49.030;8.714;2023-03-16T10:46:02;10.10;;;7.27;;
7531;SDS011;3807;49.030;8.714;2023-03-16T10:48:29;9.77;;;6.03;;
7531;SDS011;3807;49.030;8.714;2023-03-16T10:50:57;8.20;;;5.40;;
7531;SDS011;3807;49.030;8.714;2023-03-16T10:53:30;9.70;;;5.23;;
7531;SDS011;3807;49.030;8.714;2023-03-16T10:56:07;10.90;;;5.20;;
7531;SDS011;3807;49.030;8.714;2023-03-16T10:58:39;9.67;;;5.30;;
7531;SDS011;3807;49.030;8.714;2023-03-16T11:01:10;5.97;;;3.60;;
7531;SDS011;3807;49.030;8.714;2023-03-16T11:03:48;4.70;;;3.60;;
7531;SDS011;3807;49.030;8.714;2023-03-16T11:06:17;7.07;;;2.83;;
7531;SDS011;3807;49.030;8.714;2023-03-16T11:09:04;3.83;;;2.67;;
7531;SDS011;3807;49.030;8.714;2023-03-16T11:11:35;5.80;;;3.73;;
7531;SDS011;3807;49.030;8.714;2023-03-16T11:14:01;5.83;;;3.47;;
7531;SDS011;3807;49.030;8.714;2023-03-16T11:19:20;7.40;;;3.27;;
7531;SDS011;3807;49.030;8.714;2023-03-16T11:24:33;13.30;;;4.20;;
7531;SDS011;3807;49.030;8.714;2023-03-16T11:27:16;6.13;;;3.87;;
7531;SDS011;3807;49.030;8.714;2023-03-16T11:32:28;6.97;;;4.37;;
7531;SDS011;3807;49.030;8.714;2023-03-16T11:34:57;11.20;;;3.90;;
7531;SDS011;3807;49.030;8.714;2023-03-16T11:37:29;6.50;;;4.57;;
7531;SDS011;3807;49.030;8.714;2023-03-16T11:52:07;6.20;;;3.10;;
7531;SDS011;3807;49.030;8.714;2023-03-16T11:57:05;4.73;;;3.10;;
7531;SDS011;3807;49.030;8.714;2023-03-16T12:10:07;7.23;;;3.30;;
7531;SDS011;3807;49.030;8.714;2023-03-16T12:12:54;5.17;;;3.63;;
7531;SDS011;3807;49.030;8.714;2023-03-16T12:15:34;8.73;;;2.60;;
7531;SDS011;3807;49.030;8.714;2023-03-16T12:18:13;5.20;;;3.00;;
7531;SDS011;3807;49.030;8.714;2023-03-16T12:23:32;2.93;;;2.33;;
7531;SDS011;3807;49.030;8.714;2023-03-16T12:26:02;8.53;;;3.17;;
7531;SDS011;3807;49.030;8.714;2023-03-16T12:28:28;3.80;;;3.07;;
7531;SDS011;3807;49.030;8.714;2023-03-16T12:31:06;4.30;;;2.90;;
7531;SDS011;3807;49.030;8.714;2023-03-16T12:39:23;4.30;;;2.67;;
7531;SDS011;3807;49.030;8.714;2023-03-16T12:44:48;2.13;;;1.93;;
7531;SDS011;3807;49.030;8.714;2023-03-16T12:50:07;3.33;;;2.20;;
7531;SDS011;3807;49.030;8.714;2023-03-16T12:52:39;5.23;;;2.10;;
7531;SDS011;3807;49.030;8.714;2023-03-16T12:55:16;5.90;;;2.43;;
7531;SDS011;3807;49.030;8.714;2023-03-16T12:57:44;5.40;;;3.17;;
7531;SDS011;3807;49.030;8.714;2023-03-16T13:00:13;2.50;;;2.20;;
7531;SDS011;3807;49.030;8.714;2023-03-16T13:02:43;3.80;;;2.50;;
7531;SDS011;3807;49.030;8.714;2023-03-16T13:05:26;2.30;;;1.70;;
7531;SDS011;3807;49.030;8.714;2023-03-16T13:10:33;7.40;;;2.50;;
7531;SDS011;3807;49.030;8.714;2023-03-16T13:13:09;4.27;;;2.47;;
7531;SDS011;3807;49.030;8.714;2023-03-16T13:15:37;2.83;;;2.10;;
7531;SDS011;3807;49.030;8.714;2023-03-16T13:28:58;4.03;;;2.70;;
7531;SDS011;3807;49.030;8.714;2023-03-16T13:31:24;3.77;;;2.63;;
7531;SDS011;3807;49.030;8.714;2023-03-16T13:33:54;7.63;;;2.50;;
7531;SDS011;3807;49.030;8.714;2023-03-16T13:36:20;14.50;;;2.77;;
7531;SDS011;3807;49.030;8.714;2023-03-16T13:39:01;3.40;;;2.50;;
7531;SDS011;3807;49.030;8.714;2023-03-16T13:41:39;3.87;;;2.10;;
7531;SDS011;3807;49.030;8.714;2023-03-16T13:44:10;7.50;;;2.60;;
7531;SDS011;3807;49.030;8.714;2023-03-16T13:46:37;6.43;;;2.67;;
7531;SDS011;3807;49.030;8.714;2023-03-16T13:49:03;9.53;;;2.90;;
7531;SDS011;3807;49.030;8.714;2023-03-16T13:51:28;4.40;;;2.40;;
7531;SDS011;3807;49.030;8.714;2023-03-16T13:54:02;9.60;;;2.77;;
7531;SDS011;3807;49.030;8.714;2023-03-16T13:56:30;8.87;;;2.23;;
7531;SDS011;3807;49.030;8.714;2023-03-16T13:58:57;6.43;;;2.80;;
7531;SDS011;3807;49.030;8.714;2023-03-16T14:01:24;5.10;;;3.10;;
7531;SDS011;3807;49.030;8.714;2023-03-16T14:03:53;5.37;;;2.33;;
7531;SDS011;3807;49.030;8.714;2023-03-16T14:06:24;4.03;;;1.80;;
7531;SDS011;3807;49.030;8.714;2023-03-16T14:08:54;7.90;;;2.70;;
7531;SDS011;3807;49.030;8.714;2023-03-16T14:11:24;6.30;;;2.40;;
7531;SDS011;3807;49.030;8.714;2023-03-16T14:13:54;6.13;;;2.13;;
7531;SDS011;3807;49.030;8.714;2023-03-16T14:16:25;8.93;;;2.47;;
7531;SDS011;3807;49.030;8.714;2023-03-16T14:19:02;4.33;;;2.60;;
7531;SDS011;3807;49.030;8.714;2023-03-16T14:21:30;3.93;;;2.43;;
7531;SDS011;3807;49.030;8.714;2023-03-16T14:24:03;5.73;;;2.90;;
7531;SDS011;3807;49.030;8.714;2023-03-16T14:26:40;6.97;;;2.17;;
7531;SDS011;3807;49.030;8.714;2023-03-16T14:31:43;3.77;;;2.57;;
7531;SDS011;3807;49.030;8.714;2023-03-16T14:34:29;5.07;;;2.87;;
7531;SDS011;3807;49.030;8.714;2023-03-16T14:37:12;5.20;;;2.47;;
7531;SDS011;3807;49.030;8.714;2023-03-16T14:39:39;3.80;;;2.13;;
7531;SDS011;3807;49.030;8.714;2023-03-16T14:42:10;6.57;;;2.50;;
7531;SDS011;3807;49.030;8.714;2023-03-16T14:44:39;3.50;;;2.67;;
7531;SDS011;3807;49.030;8.714;2023-03-16T14:47:05;3.43;;;2.30;;
7531;SDS011;3807;49.030;8.714;2023-03-16T14:49:34;4.47;;;2.10;;
7531;SDS011;3807;49.030;8.714;2023-03-16T14:52:06;3.73;;;2.20;;
7531;SDS011;3807;49.030;8.714;2023-03-16T14:54:42;9.37;;;3.07;;
7531;SDS011;3807;49.030;8.714;2023-03-16T14:57:11;3.23;;;1.97;;
7531;SDS011;3807;49.030;8.714;2023-03-16T14:59:40;2.90;;;2.03;;
7531;SDS011;3807;49.030;8.714;2023-03-16T15:02:11;2.63;;;2.10;;
7531;SDS011;3807;49.030;8.714;2023-03-16T15:04:50;3.80;;;2.10;;
7531;SDS011;3807;49.030;8.714;2023-03-16T15:07:23;3.97;;;2.33;;
7531;SDS011;3807;49.030;8.714;2023-03-16T15:09:52;4.53;;;2.43;;
7531;SDS011;3807;49.030;8.714;2023-03-16T15:12:19;6.07;;;3.80;;
7531;SDS011;3807;49.030;8.714;2023-03-16T15:14:46;4.47;;;2.17;;
7531;SDS011;3807;49.030;8.714;2023-03-16T15:17:30;4.27;;;2.40;;
7531;SDS011;3807;49.030;8.714;2023-03-16T15:19:56;3.37;;;2.27;;
7531;SDS011;3807;49.030;8.714;2023-03-16T15:22:29;5.90;;;2.57;;
7531;SDS011;3807;49.030;8.714;2023-03-16T15:24:56;7.43;;;3.00;;
7531;SDS011;3807;49.030;8.714;2023-03-16T15:27:24;4.53;;;2.20;;
7531;SDS011;3807;49.030;8.714;2023-03-16T15:29:55;3.93;;;2.40;;
7531;SDS011;3807;49.030;8.714;2023-03-16T15:32:21;5.77;;;2.40;;
7531;SDS011;3807;49.030;8.714;2023-03-16T15:34:47;5.37;;;2.20;;
7531;SDS011;3807;49.030;8.714;2023-03-16T15:37:16;4.63;;;2.27;;
7531;SDS011;3807;49.030;8.714;2023-03-16T15:39:43;6.60;;;2.77;;
7531;SDS011;3807;49.030;8.714;2023-03-16T15:42:14;4.40;;;2.10;;
7531;SDS011;3807;49.030;8.714;2023-03-16T15:44:41;4.97;;;2.80;;
7531;SDS011;3807;49.030;8.714;2023-03-16T15:47:06;5.33;;;3.13;;
7531;SDS011;3807;49.030;8.714;2023-03-16T15:49:33;4.60;;;2.70;;
7531;SDS011;3807;49.030;8.714;2023-03-16T15:51:59;3.57;;;2.40;;
7531;SDS011;3807;49.030;8.714;2023-03-16T15:54:24;5.90;;;2.80;;
7531;SDS011;3807;49.030;8.714;2023-03-16T15:56:50;4.73;;;2.30;;
7531;SDS011;3807;49.030;8.714;2023-03-16T15:59:15;6.17;;;2.40;;
7531;SDS011;3807;49.030;8.714;2023-03-16T16:01:45;4.73;;;2.53;;
7531;SDS011;3807;49.030;8.714;2023-03-16T16:04:14;3.80;;;2.57;;
7531;SDS011;3807;49.030;8.714;2023-03-16T16:06:42;3.53;;;2.07;;
7531;SDS011;3807;49.030;8.714;2023-03-16T16:09:08;4.40;;;2.40;;
7531;SDS011;3807;49.030;8.714;2023-03-16T16:11:34;5.40;;;2.87;;
7531;SDS011;3807;49.030;8.714;2023-03-16T16:14:00;3.23;;;2.13;;
7531;SDS011;3807;49.030;8.714;2023-03-16T16:16:26;4.50;;;2.13;;
7531;SDS011;3807;49.030;8.714;2023-03-16T16:18:53;4.10;;;2.13;;
7531;SDS011;3807;49.030;8.714;2023-03-16T16:21:20;3.47;;;2.30;;
7531;SDS011;3807;49.030;8.714;2023-03-16T16:23:47;5.50;;;2.07;;
7531;SDS011;3807;49.030;8.714;2023-03-16T16:26:34;9.10;;;2.37;;
7531;SDS011;3807;49.030;8.714;2023-03-16T16:29:16;6.87;;;2.47;;
7531;SDS011;3807;49.030;8.714;2023-03-16T16:31:46;5.17;;;2.77;;
7531;SDS011;3807;49.030;8.714;2023-03-16T16:34:15;3.77;;;2.50;;
7531;SDS011;3807;49.030;8.714;2023-03-16T16:36:45;3.50;;;2.60;;